createdAt,value
2018-08-10T20:31:56.365Z,17.86
2018-08-10T20:32:56.364Z,17.84
2018-08-10T20:33:57.744Z,17.79
2018-08-10T20:34:56.322Z,17.86
2018-08-10T20:35:56.327Z,17.91
2018-08-10T20:36:56.346Z,17.99
2018-08-10T20:37:56.496Z,17.86
2018-08-10T20:38:56.327Z,17.74
2018-08-10T20:39:56.277Z,17.77
2018-08-10T20:40:56.350Z,17.73
2018-08-10T20:42:06.474Z,17.60
2018-08-10T20:42:56.248Z,17.43
2018-08-10T20:43:56.256Z,17.35
2018-08-10T20:44:56.240Z,17.12
2018-08-10T20:45:56.214Z,17.10
2018-08-10T20:46:56.251Z,17.12
2018-08-10T20:47:56.204Z,17.27
2018-08-10T20:48:56.295Z,17.24
2018-08-10T20:49:56.264Z,17.32
2018-08-10T20:50:56.151Z,17.35
2018-08-10T20:52:07.757Z,17.53
2018-08-10T20:52:58.355Z,17.62
2018-08-10T20:53:56.130Z,17.94
2018-08-10T20:54:56.131Z,18.16
2018-08-10T20:55:56.159Z,18.35
2018-08-10T20:56:56.102Z,18.50
2018-08-10T20:57:56.894Z,18.49
2018-08-10T20:58:56.091Z,18.56
2018-08-10T21:00:04.197Z,18.57
2018-08-10T21:00:56.080Z,18.56
2018-08-10T21:01:56.041Z,18.51
2018-08-10T21:02:56.040Z,18.56
2018-08-10T21:03:56.065Z,18.46
2018-08-10T21:04:56.019Z,18.46
2018-08-10T21:05:56.029Z,18.42
2018-08-10T21:06:55.990Z,18.31
2018-08-10T21:07:55.986Z,18.34
2018-08-10T21:08:56.032Z,18.28
2018-08-10T21:09:55.961Z,18.29
2018-08-10T21:10:55.942Z,18.32
2018-08-10T21:11:55.953Z,18.14
2018-08-10T21:12:57.246Z,18.16
2018-08-10T21:13:55.917Z,18.05
2018-08-10T21:14:55.937Z,18.04
2018-08-10T21:15:56.016Z,17.94
2018-08-10T21:16:55.883Z,17.71
2018-08-10T21:17:55.883Z,17.73
2018-08-10T21:18:56.020Z,17.71
2018-08-10T21:19:55.852Z,17.62
2018-08-10T21:20:55.834Z,17.47
2018-08-10T21:21:55.836Z,17.36
2018-08-10T21:22:55.841Z,17.36
2018-08-10T21:23:55.801Z,17.39
2018-08-10T21:24:55.802Z,17.27
2018-08-10T21:25:55.794Z,17.30
2018-08-10T21:26:55.771Z,17.35
2018-08-10T21:27:55.771Z,17.54
2018-08-10T21:28:55.742Z,17.49
2018-08-10T21:29:55.736Z,17.45
2018-08-10T21:30:55.720Z,17.70
2018-08-10T21:31:55.749Z,17.57
2018-08-10T21:32:55.733Z,17.46
2018-08-10T21:33:55.699Z,17.42
2018-08-10T21:34:55.673Z,17.35
2018-08-10T21:35:55.682Z,17.35
2018-08-10T21:36:55.672Z,17.36
2018-08-10T21:37:56.572Z,17.32
2018-08-10T21:38:55.634Z,17.32
2018-08-10T21:39:55.635Z,17.30
2018-08-10T21:40:55.634Z,17.25
2018-08-10T21:41:55.612Z,17.17
2018-08-10T21:42:55.610Z,16.96
2018-08-10T21:43:55.604Z,16.75
2018-08-10T21:44:55.576Z,16.72
2018-08-10T21:45:55.567Z,16.47
2018-08-10T21:46:55.548Z,16.18
2018-08-10T21:47:58.648Z,16.07
2018-08-10T21:48:55.557Z,16.13
2018-08-10T21:49:55.515Z,15.98
2018-08-10T21:50:55.514Z,15.85
2018-08-10T21:51:55.508Z,15.67
2018-08-10T21:52:55.508Z,15.73
2018-08-10T21:53:55.475Z,15.62
2018-08-10T21:54:55.480Z,15.76
2018-08-10T21:55:55.538Z,15.92
2018-08-10T21:56:55.448Z,16.17
2018-08-10T21:57:55.459Z,16.37
2018-08-10T21:58:55.423Z,16.41
2018-08-10T21:59:55.405Z,16.54
2018-08-10T22:00:55.396Z,16.90
2018-08-10T22:01:55.398Z,17.35
2018-08-10T22:02:58.319Z,17.35
2018-08-10T22:03:55.386Z,17.24
2018-08-10T22:04:55.351Z,17.22
2018-08-10T22:05:55.351Z,17.15
2018-08-10T22:06:55.406Z,16.88
2018-08-10T22:07:55.374Z,16.70
2018-08-10T22:08:55.339Z,16.52
2018-08-10T22:09:55.328Z,16.29
2018-08-10T22:10:55.313Z,16.11
2018-08-10T22:11:55.300Z,16.08
2018-08-10T22:12:55.294Z,16.01
2018-08-10T22:13:55.299Z,15.95
2018-08-10T22:14:55.249Z,15.93
2018-08-10T22:15:55.235Z,15.84
2018-08-10T22:16:55.265Z,15.89
2018-08-10T22:17:55.219Z,15.68
2018-08-10T22:18:55.219Z,15.60
2018-08-10T22:19:55.231Z,15.58
2018-08-10T22:20:55.182Z,15.55
2018-08-10T22:21:55.190Z,15.46
2018-08-10T22:22:55.168Z,15.38
2018-08-10T22:23:58.664Z,15.37
2018-08-10T22:24:55.181Z,15.27
2018-08-10T22:25:55.137Z,15.18
2018-08-10T22:26:55.134Z,15.28
2018-08-10T22:27:55.114Z,15.31
2018-08-10T22:28:55.124Z,15.73
2018-08-10T22:29:55.090Z,16.04
2018-08-10T22:30:55.076Z,16.14
2018-08-10T22:31:55.073Z,16.08
2018-08-10T22:32:55.115Z,15.96
2018-08-10T22:33:55.067Z,16.01
2018-08-10T22:34:55.030Z,15.92
2018-08-10T22:35:55.038Z,15.81
2018-08-10T22:36:55.019Z,15.78
2018-08-10T22:37:55.013Z,15.77
2018-08-10T22:38:58.424Z,15.64
2018-08-10T22:39:54.981Z,15.51
2018-08-10T22:40:54.968Z,15.46
2018-08-10T22:41:54.975Z,15.27
2018-08-10T22:42:54.949Z,15.13
2018-08-10T22:43:54.953Z,15.03
2018-08-10T22:44:54.939Z,14.79
2018-08-10T22:45:54.911Z,14.74
2018-08-10T22:46:54.911Z,14.67
2018-08-10T22:47:54.912Z,14.90
2018-08-10T22:48:54.934Z,15.18
2018-08-10T22:49:54.896Z,15.40
2018-08-10T22:50:54.863Z,15.76
2018-08-10T22:51:54.854Z,15.80
2018-08-10T22:52:54.841Z,15.85
2018-08-10T22:53:54.863Z,15.76
2018-08-10T22:54:54.821Z,15.77
2018-08-10T22:55:54.827Z,15.81
2018-08-10T22:56:54.820Z,15.85
2018-08-10T22:57:54.785Z,15.85
2018-08-10T22:58:54.771Z,16.01
2018-08-10T22:59:54.784Z,15.92
2018-08-10T23:00:54.750Z,15.92
2018-08-10T23:01:54.747Z,16.06
2018-08-10T23:02:54.744Z,16.18
2018-08-10T23:03:54.716Z,16.29
2018-08-10T23:04:54.726Z,16.33
2018-08-10T23:05:54.700Z,16.47
2018-08-10T23:06:54.694Z,16.41
2018-08-10T23:07:54.689Z,16.32
2018-08-10T23:08:54.730Z,16.33
2018-08-10T23:09:54.666Z,16.17
2018-08-10T23:10:54.650Z,16.13
2018-08-10T23:11:54.627Z,16.08
2018-08-10T23:12:54.623Z,16.01
2018-08-10T23:13:54.607Z,16.08
2018-08-10T23:14:55.928Z,16.08
2018-08-10T23:15:54.607Z,15.96
2018-08-10T23:16:54.597Z,15.98
2018-08-10T23:17:54.576Z,15.99
2018-08-10T23:18:54.562Z,15.99
2018-08-10T23:19:54.559Z,16.11
2018-08-10T23:20:54.541Z,16.08
2018-08-10T23:21:54.529Z,16.29
2018-08-10T23:22:54.508Z,16.29
2018-08-10T23:23:54.514Z,16.34
2018-08-10T23:24:54.530Z,16.42
2018-08-10T23:25:54.482Z,16.47
2018-08-10T23:26:54.485Z,16.50
2018-08-10T23:27:54.474Z,16.52
2018-08-10T23:28:54.450Z,16.48
2018-08-10T23:29:54.450Z,16.45
2018-08-10T23:30:54.426Z,16.37
2018-08-10T23:31:54.424Z,16.34
2018-08-10T23:32:54.409Z,16.25
2018-08-10T23:33:54.401Z,16.29
2018-08-10T23:34:55.597Z,16.08
2018-08-10T23:35:54.419Z,16.22
2018-08-10T23:36:54.357Z,16.04
2018-08-10T23:37:54.379Z,16.10
2018-08-10T23:38:54.406Z,16.03
2018-08-10T23:39:54.366Z,15.92
2018-08-10T23:40:54.334Z,15.89
2018-08-10T23:41:54.303Z,15.89
2018-08-10T23:42:54.377Z,15.84
2018-08-10T23:43:54.318Z,15.86
2018-08-10T23:44:54.302Z,15.91
2018-08-10T23:45:54.262Z,16.10
2018-08-10T23:46:54.265Z,16.13
2018-08-10T23:47:54.254Z,16.11
2018-08-10T23:48:54.240Z,16.04
2018-08-10T23:49:54.226Z,15.96
2018-08-10T23:50:54.206Z,15.84
2018-08-10T23:51:54.207Z,15.93
2018-08-10T23:52:54.198Z,16.03
2018-08-10T23:53:54.173Z,16.04
2018-08-10T23:54:54.186Z,16.11
2018-08-10T23:55:54.149Z,16.07
2018-08-10T23:56:54.137Z,16.04
2018-08-10T23:57:54.141Z,16.04
2018-08-10T23:58:54.257Z,15.91
2018-08-10T23:59:54.119Z,15.92
